createdAt,value
2022-12-13T00:01:13.207Z,-0.85
2022-12-13T00:06:16.591Z,-0.96
2022-12-13T00:11:18.537Z,-1.00
2022-12-13T00:16:22.714Z,-1.01
2022-12-13T00:21:27.106Z,-1.01
2022-12-13T00:26:29.899Z,-0.90
2022-12-13T00:36:55.419Z,-1.10
2022-12-13T00:41:57.306Z,-1.16
2022-12-13T00:46:59.739Z,-1.37
2022-12-13T00:52:03.022Z,-1.45
2022-12-13T00:57:05.012Z,-1.65
2022-12-13T01:02:06.821Z,-1.57
2022-12-13T01:07:09.975Z,-1.48
2022-12-13T01:12:11.907Z,-1.69
2022-12-13T01:17:13.815Z,-1.65
2022-12-13T01:22:17.044Z,-1.50
2022-12-13T01:27:18.980Z,-1.46
2022-12-13T01:32:20.762Z,-1.39
2022-12-13T01:37:26.009Z,-1.50
2022-12-13T01:42:28.137Z,-1.56
2022-12-13T01:47:31.948Z,-1.53
2022-12-13T01:52:35.157Z,-1.63
2022-12-13T01:57:40.762Z,-1.66
2022-12-13T02:02:45.699Z,-1.75
2022-12-13T02:07:48.899Z,-1.64
2022-12-13T02:12:50.732Z,-1.57
2022-12-13T02:17:58.327Z,-1.48
2022-12-13T02:23:12.979Z,-1.58
2022-12-13T02:28:31.312Z,-1.63
2022-12-13T02:33:40.251Z,-1.64
2022-12-13T02:38:46.134Z,-1.71
2022-12-13T02:43:49.284Z,-1.63
2022-12-13T02:48:53.066Z,-1.44
2022-12-13T02:53:54.925Z,-1.19
2022-12-13T02:58:56.780Z,-1.06
2022-12-13T03:04:05.603Z,-0.95
2022-12-13T03:09:17.993Z,-0.90
2022-12-13T03:14:20.075Z,-0.98
2022-12-13T03:19:23.197Z,-0.94
2022-12-13T03:24:24.979Z,-0.80
2022-12-13T03:29:26.816Z,-0.84
2022-12-13T03:34:44.910Z,-0.79
2022-12-13T03:39:47.994Z,-1.00
2022-12-13T03:44:49.865Z,-1.12
2022-12-13T03:49:54.362Z,-1.08
2022-12-13T03:54:56.483Z,-0.94
2022-12-13T03:59:58.385Z,-1.03
2022-12-13T04:05:01.667Z,-1.22
2022-12-13T04:10:03.751Z,-1.40
2022-12-13T04:15:25.784Z,-1.30
2022-12-13T04:20:29.013Z,-1.50
2022-12-13T04:25:30.998Z,-1.67
2022-12-13T04:30:32.985Z,-1.81
2022-12-13T04:35:36.098Z,-1.91
2022-12-13T04:40:37.980Z,-2.35
2022-12-13T04:45:39.792Z,-2.24
2022-12-13T04:50:42.986Z,-1.95
2022-12-13T04:55:44.812Z,-1.68
2022-12-13T05:00:46.640Z,-1.78
2022-12-13T05:05:49.765Z,-1.98
2022-12-13T05:10:51.589Z,-2.19
2022-12-13T05:15:56.640Z,-2.14
2022-12-13T05:21:03.081Z,-1.97
2022-12-13T05:26:05.051Z,-1.65
2022-12-13T05:31:23.048Z,-1.61
2022-12-13T05:36:27.121Z,-1.49
2022-12-13T05:41:29.526Z,-1.69
2022-12-13T05:46:31.613Z,-1.46
2022-12-13T05:51:36.623Z,-1.28
2022-12-13T05:56:38.379Z,-1.31
2022-12-13T06:01:43.607Z,-1.51
2022-12-13T06:06:47.259Z,-1.42
2022-12-13T06:12:00.903Z,-1.30
2022-12-13T06:17:03.325Z,-1.37
2022-12-13T06:22:06.502Z,-1.20
2022-12-13T06:27:08.252Z,-1.22
2022-12-13T06:32:10.479Z,-1.17
2022-12-13T06:37:13.822Z,-1.37
2022-12-13T06:42:21.767Z,-1.75
2022-12-13T06:47:31.937Z,-1.87
2022-12-13T06:52:35.726Z,-2.05
2022-12-13T06:57:37.508Z,-2.16
2022-12-13T07:02:42.791Z,-2.09
2022-12-13T07:07:46.101Z,-2.18
2022-12-13T07:12:47.983Z,-2.26
2022-12-13T07:17:50.367Z,-2.47
2022-12-13T07:22:58.858Z,-2.43
2022-12-13T07:28:02.898Z,-2.07
2022-12-13T07:33:05.238Z,-2.14
2022-12-13T07:38:08.459Z,-2.35
2022-12-13T07:43:11.836Z,-2.40
2022-12-13T07:48:13.617Z,-2.51
2022-12-13T07:53:17.010Z,-2.48
2022-12-13T07:58:18.902Z,-2.41
2022-12-13T08:03:25.559Z,-1.96
2022-12-13T08:08:30.973Z,-1.73
2022-12-13T08:13:33.833Z,-1.59
2022-12-13T08:18:35.999Z,-1.27
2022-12-13T08:23:39.086Z,-1.29
2022-12-13T08:28:40.806Z,-0.96
2022-12-13T08:33:45.533Z,-0.43
2022-12-13T08:38:48.648Z,-0.22
2022-12-13T08:43:50.787Z,1.41
2022-12-13T08:48:53.231Z,3.30
2022-12-13T08:54:10.668Z,6.50
2022-12-13T08:59:13.225Z,7.82
2022-12-13T09:04:18.026Z,8.44
2022-12-13T09:09:34.963Z,9.72
2022-12-13T09:14:45.053Z,11.11
2022-12-13T09:19:47.281Z,12.06
2022-12-13T09:24:50.465Z,12.62
2022-12-13T09:29:52.199Z,12.43
2022-12-13T09:34:54.024Z,12.72
2022-12-13T09:39:57.250Z,14.01
2022-12-13T09:45:03.236Z,14.39
2022-12-13T09:50:06.446Z,12.80
2022-12-13T09:55:18.959Z,10.27
2022-12-13T10:00:21.817Z,9.18
2022-12-13T10:05:34.287Z,8.20
2022-12-13T10:10:42.215Z,7.35
2022-12-13T10:15:47.427Z,6.91
2022-12-13T10:20:49.171Z,6.58
2022-12-13T10:25:55.022Z,6.40
2022-12-13T10:31:05.604Z,6.26
2022-12-13T10:36:09.614Z,6.14
2022-12-13T10:41:27.566Z,6.08
2022-12-13T10:46:31.115Z,5.92
2022-12-13T10:51:40.265Z,5.57
2022-12-13T10:56:45.632Z,5.35
2022-12-13T11:01:47.403Z,5.18
2022-12-13T11:06:49.180Z,5.11
2022-12-13T11:11:59.059Z,5.17
2022-12-13T11:17:06.492Z,5.22
2022-12-13T11:22:08.762Z,5.34
2022-12-13T11:27:24.408Z,5.26
2022-12-13T11:32:33.338Z,5.39
2022-12-13T11:37:39.177Z,5.37
2022-12-13T11:42:44.040Z,5.50
2022-12-13T11:47:49.983Z,5.71
2022-12-13T11:53:01.671Z,5.59
2022-12-13T11:58:07.299Z,5.74
2022-12-13T12:03:17.747Z,5.97
2022-12-13T12:08:32.415Z,6.29
2022-12-13T12:13:50.800Z,6.54
2022-12-13T12:19:01.518Z,6.81
2022-12-13T12:24:15.932Z,6.68
2022-12-13T12:29:50.649Z,7.19
2022-12-13T12:34:55.937Z,7.30
2022-12-13T12:40:15.374Z,7.39
2022-12-13T12:45:55.212Z,7.53
2022-12-13T12:50:50.865Z,7.69
2022-12-13T12:56:00.826Z,7.82
2022-12-13T13:01:13.238Z,7.84
2022-12-13T13:06:16.692Z,7.83
2022-12-13T13:11:24.362Z,7.79
2022-12-13T13:16:34.295Z,7.79
2022-12-13T13:21:46.344Z,7.79
2022-12-13T13:26:49.693Z,7.83
2022-12-13T13:32:01.135Z,7.71
2022-12-13T13:37:27.247Z,7.74
2022-12-13T13:42:29.381Z,7.62
2022-12-13T13:47:38.970Z,7.20
2022-12-13T13:52:45.987Z,7.04
2022-12-13T13:58:29.959Z,6.96
2022-12-13T14:03:58.032Z,6.90
2022-12-13T14:09:21.854Z,6.76
2022-12-13T14:14:51.536Z,6.47
2022-12-13T14:20:23.544Z,6.33
2022-12-13T14:25:42.273Z,6.23
2022-12-13T14:30:48.312Z,6.02
2022-12-13T14:36:01.710Z,5.83
2022-12-13T14:41:03.682Z,5.91
2022-12-13T14:46:06.475Z,5.89
2022-12-13T14:51:29.661Z,5.76
2022-12-13T14:56:31.410Z,5.65
2022-12-13T15:01:34.157Z,5.33
2022-12-13T15:06:37.243Z,5.45
2022-12-13T15:11:39.134Z,5.51
2022-12-13T15:16:41.065Z,5.41
2022-12-13T15:21:58.618Z,5.22
